createdAt,value
2023-02-05T00:02:11.618Z,11.83
2023-02-05T00:04:41.265Z,12.23
2023-02-05T00:07:09.386Z,12.23
2023-02-05T00:09:40.801Z,12.97
2023-02-05T00:12:09.262Z,12.00
2023-02-05T00:14:37.202Z,11.03
2023-02-05T00:17:05.144Z,13.17
2023-02-05T00:19:33.146Z,12.67
2023-02-05T00:22:02.489Z,13.27
2023-02-05T00:24:30.497Z,12.90
2023-02-05T00:26:58.457Z,13.27
2023-02-05T00:29:26.389Z,12.90
2023-02-05T00:31:54.391Z,12.63
2023-02-05T00:34:22.344Z,12.73
2023-02-05T00:36:50.280Z,12.97
2023-02-05T00:39:19.876Z,12.87
2023-02-05T00:41:47.821Z,13.07
2023-02-05T00:44:15.898Z,12.57
2023-02-05T00:46:43.821Z,12.37
2023-02-05T00:49:11.757Z,13.10
2023-02-05T00:51:39.682Z,12.93
2023-02-05T00:54:07.661Z,13.07
2023-02-05T00:56:37.009Z,12.63
2023-02-05T00:59:05.142Z,12.07
2023-02-05T01:01:33.127Z,11.97
2023-02-05T01:04:01.100Z,11.47
2023-02-05T01:06:29.033Z,11.60
2023-02-05T01:08:57.093Z,11.50
2023-02-05T01:11:25.056Z,11.37
2023-02-05T01:13:54.328Z,11.20
2023-02-05T01:16:22.294Z,11.50
2023-02-05T01:18:50.268Z,12.57
2023-02-05T01:21:18.223Z,11.67
2023-02-05T01:23:46.184Z,11.97
2023-02-05T01:26:14.285Z,12.43
2023-02-05T01:28:42.219Z,12.00
2023-02-05T01:31:11.635Z,11.87
2023-02-05T01:33:39.651Z,11.63
2023-02-05T01:36:07.973Z,11.77
2023-02-05T01:38:35.939Z,12.10
2023-02-05T01:41:03.892Z,12.50
2023-02-05T01:43:31.856Z,11.90
2023-02-05T01:46:15.662Z,12.80
2023-02-05T01:48:47.930Z,12.30
2023-02-05T01:51:17.716Z,11.23
2023-02-05T01:53:47.435Z,11.80
2023-02-05T01:56:19.770Z,11.30
2023-02-05T01:58:50.760Z,10.90
2023-02-05T02:01:20.279Z,10.97
2023-02-05T02:03:50.039Z,11.17
2023-02-05T02:06:17.985Z,11.67
2023-02-05T02:08:45.965Z,12.13
2023-02-05T02:11:17.192Z,11.80
2023-02-05T02:13:46.452Z,12.50
2023-02-05T02:16:16.117Z,12.13
2023-02-05T02:18:47.155Z,12.17
2023-02-05T02:21:36.002Z,12.03
2023-02-05T02:24:35.264Z,11.23
2023-02-05T02:27:41.805Z,11.40
2023-02-05T02:30:20.044Z,12.03
2023-02-05T02:32:52.913Z,11.23
2023-02-05T02:35:27.190Z,12.10
2023-02-05T02:38:01.924Z,12.17
2023-02-05T02:40:37.132Z,12.50
2023-02-05T02:43:11.051Z,11.20
2023-02-05T02:45:49.340Z,10.63
2023-02-05T02:48:20.525Z,10.70
2023-02-05T02:50:50.747Z,12.07
2023-02-05T02:53:21.590Z,11.27
2023-02-05T02:55:51.767Z,11.60
2023-02-05T02:58:24.375Z,10.90
2023-02-05T03:00:54.225Z,11.13
2023-02-05T03:03:25.784Z,12.33
2023-02-05T03:05:57.347Z,12.10
2023-02-05T03:08:30.067Z,12.20
2023-02-05T03:11:02.836Z,11.33
2023-02-05T03:13:32.964Z,11.53
2023-02-05T03:16:02.072Z,11.77
2023-02-05T03:18:31.353Z,11.80
2023-02-05T03:21:02.061Z,11.30
2023-02-05T03:23:30.615Z,10.77
2023-02-05T03:25:58.653Z,11.47
2023-02-05T03:28:26.719Z,11.60
2023-02-05T03:31:02.449Z,11.57
2023-02-05T03:33:39.851Z,12.03
2023-02-05T03:36:17.777Z,12.60
2023-02-05T03:39:05.345Z,12.40
2023-02-05T03:41:53.065Z,12.17
2023-02-05T03:44:33.956Z,12.87
2023-02-05T03:47:06.705Z,12.10
2023-02-05T03:49:46.003Z,13.17
2023-02-05T03:52:21.148Z,13.53
2023-02-05T03:55:01.642Z,13.70
2023-02-05T03:57:34.099Z,13.53
2023-02-05T04:00:02.711Z,13.90
2023-02-05T04:02:32.250Z,13.33
2023-02-05T04:05:00.326Z,12.53
2023-02-05T04:07:28.362Z,12.67
2023-02-05T04:09:56.301Z,12.70
2023-02-05T04:12:24.238Z,12.47
2023-02-05T04:14:52.233Z,12.50
2023-02-05T04:17:20.171Z,12.80
2023-02-05T04:19:49.494Z,12.20
2023-02-05T04:22:17.463Z,13.07
2023-02-05T04:24:45.408Z,12.27
2023-02-05T04:27:13.399Z,12.67
2023-02-05T04:29:41.336Z,12.77
2023-02-05T04:32:09.324Z,11.83
2023-02-05T04:34:37.252Z,11.90
2023-02-05T04:37:06.579Z,11.93
2023-02-05T04:39:34.588Z,12.10
2023-02-05T04:42:02.829Z,11.90
2023-02-05T04:44:30.789Z,12.33
2023-02-05T04:46:59.644Z,12.60
2023-02-05T04:49:27.651Z,12.23
2023-02-05T04:51:55.677Z,13.03
2023-02-05T04:54:24.947Z,12.70
2023-02-05T04:56:52.914Z,12.83
2023-02-05T04:59:20.929Z,13.43
2023-02-05T05:01:48.864Z,14.77
2023-02-05T05:04:16.794Z,15.87
2023-02-05T05:06:44.742Z,15.40
2023-02-05T05:09:12.813Z,14.47
2023-02-05T05:11:42.131Z,14.43
2023-02-05T05:14:10.108Z,13.83
2023-02-05T05:16:38.087Z,14.70
2023-02-05T05:19:06.008Z,14.07
2023-02-05T05:21:33.962Z,14.53
2023-02-05T05:24:01.917Z,13.83
2023-02-05T05:26:30.077Z,12.80
2023-02-05T05:28:59.739Z,12.37
2023-02-05T05:31:28.077Z,12.50
2023-02-05T05:33:56.033Z,12.77
2023-02-05T05:36:23.973Z,11.63
2023-02-05T05:38:51.918Z,12.07
2023-02-05T05:41:40.782Z,11.37
2023-02-05T05:44:10.611Z,11.73
2023-02-05T05:46:38.824Z,11.60
2023-02-05T05:49:06.852Z,11.40
2023-02-05T05:51:34.793Z,12.03
2023-02-05T05:54:03.007Z,11.67
2023-02-05T05:56:30.976Z,12.07
2023-02-05T05:58:58.922Z,10.87
2023-02-05T06:01:28.435Z,11.97
2023-02-05T06:03:56.479Z,11.97
2023-02-05T06:06:24.424Z,12.43
2023-02-05T06:08:52.381Z,13.70
2023-02-05T06:11:20.304Z,12.17
2023-02-05T06:13:48.263Z,15.77
2023-02-05T06:16:16.383Z,17.67
2023-02-05T06:18:45.720Z,17.33
2023-02-05T06:21:13.725Z,16.10
2023-02-05T06:23:41.709Z,14.47
2023-02-05T06:26:09.657Z,13.97
2023-02-05T06:28:37.609Z,14.30
2023-02-05T06:31:06.154Z,13.90
2023-02-05T06:33:34.191Z,14.30
2023-02-05T06:36:03.498Z,14.23
2023-02-05T06:38:31.553Z,13.60
2023-02-05T06:40:59.569Z,14.27
2023-02-05T06:43:27.609Z,15.17
2023-02-05T06:45:56.132Z,14.37
2023-02-05T06:48:24.056Z,14.03
2023-02-05T06:50:52.048Z,14.30
2023-02-05T06:53:22.052Z,14.33
2023-02-05T06:55:50.041Z,15.40
2023-02-05T06:58:18.702Z,14.80
2023-02-05T07:00:46.678Z,15.33
2023-02-05T07:03:14.682Z,15.17
2023-02-05T07:05:42.658Z,15.30
2023-02-05T07:08:10.572Z,16.47
2023-02-05T07:10:40.320Z,16.67
2023-02-05T07:13:08.265Z,16.63
2023-02-05T07:15:37.338Z,16.13
2023-02-05T07:18:05.943Z,16.70
2023-02-05T07:20:34.283Z,16.27
2023-02-05T07:23:02.316Z,16.03
2023-02-05T07:25:36.328Z,16.87
2023-02-05T07:28:06.277Z,15.13
2023-02-05T07:30:34.576Z,16.50
2023-02-05T07:33:03.543Z,15.67
2023-02-05T07:35:32.298Z,14.00
2023-02-05T07:38:00.612Z,13.83
2023-02-05T07:40:33.905Z,15.27
2023-02-05T07:43:01.894Z,15.27
2023-02-05T07:45:31.184Z,15.90
2023-02-05T07:47:59.126Z,16.27
2023-02-05T07:50:27.058Z,15.47
2023-02-05T07:52:55.111Z,15.17
2023-02-05T07:55:23.031Z,16.30
2023-02-05T07:57:50.984Z,15.07
2023-02-05T08:00:19.337Z,14.27
2023-02-05T08:02:48.612Z,14.53
2023-02-05T08:05:16.732Z,15.57
2023-02-05T08:07:44.687Z,14.20
2023-02-05T08:10:15.141Z,15.73
2023-02-05T08:12:43.083Z,14.10
2023-02-05T08:15:11.566Z,15.63
2023-02-05T08:17:39.569Z,15.20
2023-02-05T08:20:10.353Z,14.90
2023-02-05T08:22:40.048Z,15.77
2023-02-05T08:25:12.115Z,14.90
2023-02-05T08:27:42.271Z,17.00
2023-02-05T08:30:13.210Z,20.57
2023-02-05T08:32:41.201Z,18.50
2023-02-05T08:35:10.820Z,14.43
2023-02-05T08:37:38.890Z,14.53
2023-02-05T08:40:07.656Z,14.93
2023-02-05T08:42:36.081Z,14.27
2023-02-05T08:45:05.999Z,14.07
2023-02-05T08:47:33.925Z,18.43
2023-02-05T08:50:01.924Z,17.97
2023-02-05T08:52:31.273Z,15.03
2023-02-05T08:54:59.425Z,14.70
2023-02-05T08:57:30.029Z,13.53
2023-02-05T08:59:58.338Z,17.27
2023-02-05T09:02:29.393Z,14.93
2023-02-05T09:05:07.950Z,13.43
2023-02-05T09:07:38.086Z,15.20
2023-02-05T09:10:07.876Z,17.53
2023-02-05T09:12:35.870Z,19.57
2023-02-05T09:15:03.933Z,14.27
2023-02-05T09:17:31.862Z,13.17
2023-02-05T09:19:59.837Z,13.07
2023-02-05T09:22:27.820Z,15.43
2023-02-05T09:24:57.146Z,16.43
2023-02-05T09:27:25.200Z,15.80
2023-02-05T09:29:53.131Z,15.20
2023-02-05T09:32:21.053Z,18.37
2023-02-05T09:34:49.685Z,11.00
2023-02-05T09:37:18.572Z,10.77
2023-02-05T09:40:19.463Z,15.07
2023-02-05T09:42:44.506Z,16.33
2023-02-05T09:45:24.593Z,16.37
2023-02-05T09:48:07.349Z,15.80
2023-02-05T09:50:37.882Z,10.70
2023-02-05T09:53:08.092Z,10.20
2023-02-05T09:55:40.308Z,9.40
2023-02-05T09:58:14.850Z,9.50
2023-02-05T10:00:47.159Z,10.53
2023-02-05T10:03:26.607Z,9.47
2023-02-05T10:06:13.407Z,8.77
2023-02-05T10:08:50.346Z,9.23
2023-02-05T10:11:25.282Z,9.43
2023-02-05T10:14:06.038Z,10.40
2023-02-05T10:16:54.745Z,9.23
2023-02-05T10:19:45.512Z,9.90
2023-02-05T10:22:22.262Z,10.53
2023-02-05T10:25:19.743Z,11.60
2023-02-05T10:27:58.244Z,11.47
2023-02-05T10:30:33.474Z,13.60
2023-02-05T10:33:06.398Z,10.17
2023-02-05T10:35:44.474Z,12.63
2023-02-05T10:38:24.694Z,11.40
2023-02-05T10:41:00.246Z,11.57
2023-02-05T10:43:35.117Z,11.47
2023-02-05T10:46:06.069Z,10.73
2023-02-05T10:48:43.202Z,10.87
2023-02-05T10:51:16.051Z,10.57
2023-02-05T10:53:44.370Z,11.50
2023-02-05T10:56:17.893Z,11.10
2023-02-05T10:58:52.806Z,9.47
2023-02-05T11:01:24.303Z,9.03
2023-02-05T11:04:00.278Z,10.47
2023-02-05T11:06:32.399Z,9.83
2023-02-05T11:09:00.638Z,10.30
2023-02-05T11:11:30.737Z,9.97
2023-02-05T11:14:00.570Z,10.33
2023-02-05T11:16:39.641Z,11.10
2023-02-05T11:19:21.064Z,9.50
2023-02-05T11:21:52.627Z,10.23
2023-02-05T11:24:29.454Z,12.30
2023-02-05T11:27:26.738Z,12.40
2023-02-05T11:29:55.185Z,13.73
2023-02-05T11:32:33.982Z,12.07
2023-02-05T11:35:19.504Z,10.33
2023-02-05T11:37:49.675Z,10.60
2023-02-05T11:40:25.980Z,8.93
2023-02-05T11:43:04.160Z,9.97
2023-02-05T11:45:33.714Z,9.83
2023-02-05T11:48:06.399Z,13.50
2023-02-05T11:50:35.194Z,18.50
2023-02-05T11:53:16.492Z,15.17
2023-02-05T11:55:45.280Z,14.57
2023-02-05T11:58:36.090Z,13.87
2023-02-05T12:01:09.054Z,15.63
2023-02-05T12:03:38.528Z,13.97
2023-02-05T12:06:17.827Z,12.73
2023-02-05T12:08:50.052Z,11.43
2023-02-05T12:11:54.943Z,10.83
2023-02-05T12:14:32.158Z,9.83
2023-02-05T12:17:08.656Z,9.63
2023-02-05T12:19:48.824Z,11.90
2023-02-05T12:22:24.816Z,10.37
2023-02-05T12:25:03.659Z,10.93
2023-02-05T12:27:41.645Z,11.33
2023-02-05T12:30:30.561Z,10.83
2023-02-05T12:33:13.151Z,10.20
2023-02-05T12:35:55.694Z,12.43
2023-02-05T12:38:32.999Z,13.27
2023-02-05T12:41:12.708Z,14.50
2023-02-05T12:43:46.107Z,12.03
2023-02-05T12:46:35.355Z,15.93
2023-02-05T12:49:18.573Z,17.83
2023-02-05T12:52:07.179Z,15.13
2023-02-05T12:54:54.412Z,14.93
2023-02-05T12:57:27.457Z,11.93
2023-02-05T12:59:59.475Z,12.57
2023-02-05T13:02:35.888Z,10.03
2023-02-05T13:05:14.350Z,11.93
2023-02-05T13:07:46.540Z,14.10
2023-02-05T13:10:18.774Z,13.57
2023-02-05T13:12:50.308Z,13.00
2023-02-05T13:15:22.278Z,14.43
2023-02-05T13:17:58.051Z,13.50
2023-02-05T13:20:44.627Z,11.67
2023-02-05T13:23:33.224Z,10.03
2023-02-05T13:26:20.781Z,10.27
2023-02-05T13:28:54.997Z,10.10
2023-02-05T13:31:28.887Z,9.53
2023-02-05T13:34:01.716Z,10.17
2023-02-05T13:36:57.508Z,10.40
2023-02-05T13:39:52.221Z,10.13
2023-02-05T13:42:48.401Z,9.70
2023-02-05T13:45:46.104Z,10.30
2023-02-05T13:48:40.697Z,9.90
2023-02-05T13:51:32.185Z,9.87
2023-02-05T13:54:32.422Z,11.70
2023-02-05T13:57:17.398Z,11.03
2023-02-05T13:59:51.492Z,11.27
2023-02-05T14:02:31.690Z,14.57
2023-02-05T14:05:01.665Z,14.93
2023-02-05T14:07:32.737Z,13.33
2023-02-05T14:10:02.797Z,13.20
2023-02-05T14:12:34.990Z,12.63
2023-02-05T14:15:25.602Z,11.97
2023-02-05T14:17:56.428Z,10.13
2023-02-05T14:20:37.449Z,9.80
2023-02-05T14:23:14.456Z,12.47
2023-02-05T14:26:12.574Z,11.20
2023-02-05T14:29:02.648Z,10.90
2023-02-05T14:31:57.433Z,14.20
2023-02-05T14:34:51.227Z,12.87
2023-02-05T14:37:38.201Z,11.87
2023-02-05T14:40:32.445Z,10.77
2023-02-05T14:43:10.598Z,9.93
2023-02-05T14:45:47.231Z,9.53
2023-02-05T14:48:22.635Z,10.67
2023-02-05T14:51:02.918Z,9.97
2023-02-05T14:53:32.093Z,10.63
2023-02-05T14:56:00.419Z,9.93
2023-02-05T14:58:33.084Z,10.50
2023-02-05T15:01:42.825Z,11.57
2023-02-05T15:04:31.151Z,9.97
2023-02-05T15:07:02.065Z,14.63
2023-02-05T15:09:40.097Z,12.77
2023-02-05T15:12:42.334Z,10.60
2023-02-05T15:15:28.182Z,16.80
2023-02-05T15:18:00.382Z,16.10
2023-02-05T15:20:32.615Z,15.97
2023-02-05T15:23:12.270Z,17.50
2023-02-05T15:25:43.479Z,15.30
2023-02-05T15:28:24.736Z,14.73
2023-02-05T15:30:58.261Z,12.90
2023-02-05T15:33:39.775Z,10.90
2023-02-05T15:36:16.421Z,12.03
2023-02-05T15:38:50.327Z,13.93
2023-02-05T15:41:22.442Z,14.73
2023-02-05T15:44:01.786Z,14.03
2023-02-05T15:46:31.926Z,13.73
2023-02-05T15:49:02.126Z,13.90
2023-02-05T15:51:33.328Z,14.77
2023-02-05T15:54:03.961Z,13.60
2023-02-05T15:56:36.834Z,13.70
2023-02-05T15:59:12.871Z,23.27
2023-02-05T16:01:46.252Z,18.37
2023-02-05T16:04:20.359Z,20.37
2023-02-05T16:06:48.385Z,20.27
2023-02-05T16:09:19.147Z,20.47
2023-02-05T16:11:48.162Z,17.57
2023-02-05T16:14:18.718Z,19.83
2023-02-05T16:17:06.123Z,12.53
2023-02-05T16:19:40.665Z,14.27
2023-02-05T16:22:23.118Z,12.40
2023-02-05T16:24:54.890Z,12.50
2023-02-05T16:27:30.918Z,13.63
2023-02-05T16:30:06.130Z,14.63
2023-02-05T16:32:39.213Z,13.37
2023-02-05T16:35:23.640Z,15.00
2023-02-05T16:37:52.530Z,21.07
2023-02-05T16:40:35.231Z,21.90
2023-02-05T16:43:19.886Z,24.63
2023-02-05T16:46:21.332Z,23.53
2023-02-05T16:48:53.794Z,20.50
2023-02-05T16:51:32.859Z,21.23
2023-02-05T16:54:02.078Z,21.47
2023-02-05T16:56:32.007Z,18.57
2023-02-05T16:59:02.254Z,23.43
2023-02-05T17:01:34.068Z,18.00
2023-02-05T17:04:02.131Z,27.23
2023-02-05T17:06:36.876Z,17.60
2023-02-05T17:09:05.955Z,17.67
2023-02-05T17:11:37.391Z,20.80
2023-02-05T17:14:14.026Z,18.23
2023-02-05T17:16:43.203Z,19.47
2023-02-05T17:19:25.166Z,18.50
2023-02-05T17:22:19.450Z,17.03
2023-02-05T17:24:49.419Z,15.87
2023-02-05T17:27:19.880Z,16.13
2023-02-05T17:29:48.137Z,20.67
2023-02-05T17:32:18.456Z,20.43
2023-02-05T17:34:47.130Z,18.67
2023-02-05T17:37:15.998Z,16.00
2023-02-05T17:39:45.476Z,16.93
2023-02-05T17:42:21.967Z,15.77
2023-02-05T17:44:50.219Z,14.67
2023-02-05T17:47:18.678Z,15.87
2023-02-05T17:49:46.832Z,16.67
2023-02-05T17:52:16.110Z,16.27
2023-02-05T17:54:46.312Z,15.67
2023-02-05T17:57:18.271Z,14.57
2023-02-05T17:59:46.322Z,14.80
2023-02-05T18:02:15.016Z,16.07
2023-02-05T18:04:44.834Z,13.80
2023-02-05T18:07:20.978Z,12.10
2023-02-05T18:09:50.300Z,10.53
2023-02-05T18:12:18.210Z,10.00
2023-02-05T18:14:46.165Z,10.90
2023-02-05T18:17:14.267Z,14.03
2023-02-05T18:19:42.255Z,13.73
2023-02-05T18:22:10.348Z,14.00
2023-02-05T18:24:39.256Z,12.13
2023-02-05T18:27:09.741Z,12.00
2023-02-05T18:29:38.477Z,11.50
2023-02-05T18:32:06.822Z,13.07
2023-02-05T18:34:34.782Z,14.93
2023-02-05T18:37:02.690Z,14.23
2023-02-05T18:39:30.855Z,16.90
2023-02-05T18:41:59.292Z,17.67
2023-02-05T18:44:28.795Z,17.73
2023-02-05T18:46:56.773Z,18.50
2023-02-05T18:49:24.748Z,18.77
2023-02-05T18:51:52.918Z,20.17
2023-02-05T18:54:20.873Z,17.47
2023-02-05T18:56:49.091Z,16.73
2023-02-05T18:59:18.398Z,17.07
2023-02-05T19:01:47.924Z,17.33
2023-02-05T19:04:18.597Z,16.87
2023-02-05T19:06:50.696Z,17.90
2023-02-05T19:09:19.156Z,17.47
2023-02-05T19:11:47.099Z,18.10
2023-02-05T19:14:17.007Z,18.77
2023-02-05T19:16:45.704Z,18.53
2023-02-05T19:19:16.403Z,18.47
2023-02-05T19:21:45.110Z,19.47
2023-02-05T19:24:14.264Z,20.63
2023-02-05T19:26:44.235Z,17.93
2023-02-05T19:29:15.184Z,24.30
2023-02-05T19:31:43.787Z,23.40
2023-02-05T19:34:12.380Z,20.97
2023-02-05T19:36:41.702Z,19.73
2023-02-05T19:39:12.336Z,21.03
2023-02-05T19:41:40.298Z,19.30
2023-02-05T19:44:09.817Z,16.47
2023-02-05T19:46:41.513Z,16.00
2023-02-05T19:49:13.158Z,18.77
2023-02-05T19:51:44.682Z,17.67
2023-02-05T19:54:13.259Z,18.70
2023-02-05T19:56:41.249Z,19.27
2023-02-05T19:59:10.004Z,18.80
2023-02-05T20:01:39.933Z,18.40
2023-02-05T20:04:10.081Z,15.77
2023-02-05T20:06:38.883Z,16.20
2023-02-05T20:09:11.916Z,15.73
2023-02-05T20:11:41.038Z,16.47
2023-02-05T20:14:10.520Z,16.30
2023-02-05T20:16:40.172Z,16.53
2023-02-05T20:19:10.390Z,14.17
2023-02-05T20:21:38.612Z,15.07
2023-02-05T20:24:08.673Z,13.83
2023-02-05T20:26:37.163Z,15.17
2023-02-05T20:29:24.115Z,15.33
2023-02-05T20:31:53.408Z,15.00
2023-02-05T20:34:23.540Z,14.87
2023-02-05T20:36:53.693Z,14.53
2023-02-05T20:39:25.047Z,16.97
2023-02-05T20:41:53.557Z,15.07
2023-02-05T20:44:21.502Z,15.50
2023-02-05T20:46:49.473Z,15.10
2023-02-05T20:49:17.413Z,15.77
2023-02-05T20:51:45.476Z,16.73
2023-02-05T20:54:13.498Z,16.23
2023-02-05T20:56:42.788Z,17.27
2023-02-05T20:59:12.746Z,15.60
2023-02-05T21:01:41.247Z,15.63
2023-02-05T21:04:10.715Z,14.77
2023-02-05T21:06:40.545Z,13.87
2023-02-05T21:09:10.149Z,14.83
2023-02-05T21:11:39.178Z,14.17
2023-02-05T21:14:09.721Z,14.07
2023-02-05T21:16:38.908Z,14.73
2023-02-05T21:19:08.774Z,15.17
2023-02-05T21:21:38.167Z,15.90
2023-02-05T21:24:08.820Z,17.03
2023-02-05T21:26:38.897Z,17.23
2023-02-05T21:29:10.099Z,18.07
2023-02-05T21:31:39.954Z,18.03
2023-02-05T21:34:09.917Z,16.83
2023-02-05T21:36:37.906Z,17.33
2023-02-05T21:39:06.044Z,16.83
2023-02-05T21:41:34.149Z,17.73
2023-02-05T21:44:02.542Z,17.37
2023-02-05T21:46:32.230Z,17.90
2023-02-05T21:49:02.220Z,18.03
2023-02-05T21:51:33.923Z,18.73
2023-02-05T21:54:04.725Z,18.53
2023-02-05T21:56:35.622Z,19.20
2023-02-05T21:59:03.811Z,20.33
2023-02-05T22:01:35.594Z,19.70
2023-02-05T22:04:06.154Z,19.57
2023-02-05T22:06:36.070Z,21.13
2023-02-05T22:09:05.628Z,21.53
2023-02-05T22:11:34.091Z,21.70
2023-02-05T22:14:02.112Z,21.23
2023-02-05T22:16:33.293Z,23.13
2023-02-05T22:19:02.258Z,23.87
2023-02-05T22:21:32.315Z,23.77
2023-02-05T22:24:01.989Z,21.67
2023-02-05T22:26:31.848Z,22.20
2023-02-05T22:29:01.536Z,23.13
2023-02-05T22:31:30.477Z,22.90
2023-02-05T22:33:59.959Z,20.80
2023-02-05T22:36:29.928Z,20.73
2023-02-05T22:38:58.596Z,21.93
2023-02-05T22:41:28.536Z,22.80
2023-02-05T22:43:58.238Z,21.57
2023-02-05T22:46:27.804Z,24.10
2023-02-05T22:48:56.389Z,23.20
2023-02-05T22:51:28.111Z,24.57
2023-02-05T22:53:56.740Z,23.33
2023-02-05T22:56:25.461Z,21.40
2023-02-05T22:58:54.741Z,21.93
2023-02-05T23:01:25.480Z,22.70
2023-02-05T23:03:53.486Z,22.40
2023-02-05T23:06:24.201Z,24.00
2023-02-05T23:08:55.315Z,21.47
2023-02-05T23:11:24.489Z,20.90
2023-02-05T23:13:52.492Z,21.80
2023-02-05T23:16:22.986Z,20.37
2023-02-05T23:18:52.373Z,22.03
2023-02-05T23:21:24.231Z,21.10
2023-02-05T23:23:53.588Z,19.60
2023-02-05T23:26:23.882Z,18.17
2023-02-05T23:28:53.270Z,17.37
2023-02-05T23:31:22.206Z,16.23
2023-02-05T23:33:50.627Z,17.87
2023-02-05T23:36:18.830Z,17.73
2023-02-05T23:38:47.437Z,16.20
2023-02-05T23:41:35.330Z,16.03
2023-02-05T23:44:05.732Z,16.63
2023-02-05T23:46:33.995Z,15.47
2023-02-05T23:49:02.025Z,15.03
2023-02-05T23:51:29.961Z,14.47
2023-02-05T23:53:57.909Z,13.23
2023-02-05T23:56:27.416Z,13.37
2023-02-05T23:58:55.336Z,14.17
